createdAt,value
2023-05-01T00:00:05.754Z,13.33
2023-05-01T00:02:32.605Z,14.30
2023-05-01T00:04:59.548Z,11.90
2023-05-01T00:07:29.325Z,12.70
2023-05-01T00:09:56.240Z,11.80
2023-05-01T00:12:23.488Z,13.33
2023-05-01T00:14:50.559Z,12.90
2023-05-01T00:17:17.464Z,13.13
2023-05-01T00:19:44.210Z,13.53
2023-05-01T00:22:11.071Z,13.23
2023-05-01T00:24:37.770Z,12.70
2023-05-01T00:27:04.531Z,12.33
2023-05-01T00:29:31.328Z,13.00
2023-05-01T00:31:58.101Z,13.60
2023-05-01T00:34:25.450Z,13.50
2023-05-01T00:36:52.360Z,13.30
2023-05-01T00:39:19.553Z,12.63
2023-05-01T00:41:46.468Z,12.77
2023-05-01T00:44:13.198Z,13.00
2023-05-01T00:46:39.967Z,13.17
2023-05-01T00:49:06.731Z,13.57
2023-05-01T00:51:34.105Z,13.10
2023-05-01T00:54:01.521Z,14.10
2023-05-01T00:56:28.712Z,13.60
2023-05-01T00:58:56.614Z,13.80
2023-05-01T01:01:24.034Z,12.90
2023-05-01T01:03:51.830Z,13.70
2023-05-01T01:06:40.269Z,14.57
2023-05-01T01:09:26.233Z,13.13
2023-05-01T01:12:17.213Z,14.43
2023-05-01T01:15:11.699Z,14.10
2023-05-01T01:18:08.062Z,13.83
2023-05-01T01:20:39.257Z,13.70
2023-05-01T01:23:30.508Z,16.07
2023-05-01T01:26:19.368Z,14.03
2023-05-01T01:29:21.441Z,15.20
2023-05-01T01:31:50.901Z,15.33
2023-05-01T01:34:55.975Z,13.90
2023-05-01T01:37:29.573Z,14.53
2023-05-01T01:40:18.452Z,13.73
2023-05-01T01:43:02.477Z,14.57
2023-05-01T01:45:36.267Z,15.23
2023-05-01T01:48:04.525Z,12.77
2023-05-01T01:50:33.760Z,13.70
2023-05-01T01:53:04.410Z,16.33
2023-05-01T01:55:35.226Z,14.37
2023-05-01T01:58:03.703Z,13.77
2023-05-01T02:00:31.822Z,14.00
2023-05-01T02:03:01.263Z,15.00
2023-05-01T02:05:30.069Z,15.53
2023-05-01T02:07:57.699Z,14.57
2023-05-01T02:10:25.731Z,14.93
2023-05-01T02:12:54.891Z,13.10
2023-05-01T02:15:22.437Z,13.57
2023-05-01T02:17:51.767Z,15.03
2023-05-01T02:20:19.433Z,14.23
2023-05-01T02:22:47.404Z,14.87
2023-05-01T02:25:16.630Z,15.90
2023-05-01T02:28:21.094Z,13.93
2023-05-01T02:30:47.839Z,14.90
2023-05-01T02:33:14.778Z,14.37
2023-05-01T02:35:47.169Z,13.63
2023-05-01T02:38:15.164Z,13.33
2023-05-01T02:40:46.973Z,13.13
2023-05-01T02:43:18.327Z,12.83
2023-05-01T02:45:45.845Z,14.40
2023-05-01T02:48:17.465Z,14.97
2023-05-01T02:53:23.058Z,12.50
2023-05-01T02:55:53.583Z,12.80
2023-05-01T02:58:20.618Z,12.40
2023-05-01T03:00:49.714Z,11.30
2023-05-01T03:03:17.321Z,12.53
2023-05-01T03:05:44.245Z,13.03
2023-05-01T03:08:11.643Z,11.00
2023-05-01T03:10:44.302Z,11.73
2023-05-01T03:13:11.920Z,11.30
2023-05-01T03:15:39.473Z,10.00
2023-05-01T03:18:07.002Z,11.70
2023-05-01T03:20:34.273Z,10.30
2023-05-01T03:23:01.542Z,10.50
2023-05-01T03:25:28.277Z,10.07
2023-05-01T03:27:55.341Z,11.13
2023-05-01T03:30:22.360Z,10.87
2023-05-01T03:32:49.172Z,10.23
2023-05-01T03:35:16.213Z,10.60
2023-05-01T03:37:43.025Z,9.20
2023-05-01T03:40:10.625Z,10.13
2023-05-01T03:42:37.333Z,10.30
2023-05-01T03:45:04.347Z,9.80
2023-05-01T03:47:31.270Z,10.17
2023-05-01T03:49:58.318Z,8.57
2023-05-01T03:52:25.189Z,10.53
2023-05-01T03:54:52.019Z,9.20
2023-05-01T03:57:20.734Z,10.00
2023-05-01T03:59:47.560Z,9.37
2023-05-01T04:02:14.328Z,9.20
2023-05-01T04:04:41.128Z,10.20
2023-05-01T04:07:08.020Z,9.10
2023-05-01T04:09:34.833Z,9.73
2023-05-01T04:12:02.325Z,9.37
2023-05-01T04:14:29.357Z,8.17
2023-05-01T04:16:56.610Z,8.10
2023-05-01T04:19:23.493Z,8.63
2023-05-01T04:21:50.389Z,9.13
2023-05-01T04:24:17.114Z,8.43
2023-05-01T04:26:43.855Z,8.70
2023-05-01T04:29:10.569Z,8.43
2023-05-01T04:31:37.559Z,8.03
2023-05-01T04:34:04.353Z,8.77
2023-05-01T04:36:32.915Z,7.57
2023-05-01T04:38:59.736Z,6.87
2023-05-01T04:41:26.719Z,7.00
2023-05-01T04:43:53.469Z,8.07
2023-05-01T04:46:20.250Z,7.10
2023-05-01T04:48:46.972Z,7.13
2023-05-01T04:51:13.757Z,7.77
2023-05-01T04:53:40.500Z,7.90
2023-05-01T04:56:07.324Z,6.83
2023-05-01T04:58:34.025Z,7.50
2023-05-01T05:01:00.801Z,6.63
2023-05-01T05:03:27.636Z,7.13
2023-05-01T05:05:54.456Z,8.20
2023-05-01T05:08:21.389Z,7.93
2023-05-01T05:10:48.069Z,7.10
2023-05-01T05:13:14.832Z,5.90
2023-05-01T05:15:41.549Z,5.90
2023-05-01T05:18:08.365Z,6.63
2023-05-01T05:20:39.665Z,6.87
2023-05-01T05:23:08.259Z,6.93
2023-05-01T05:25:35.341Z,6.10
2023-05-01T05:28:02.192Z,6.00
2023-05-01T05:30:28.925Z,6.00
2023-05-01T05:32:55.780Z,6.27
2023-05-01T05:35:22.585Z,6.23
2023-05-01T05:37:49.560Z,5.10
2023-05-01T05:40:16.480Z,6.53
2023-05-01T05:42:43.235Z,6.40
2023-05-01T05:45:10.298Z,5.97
2023-05-01T05:47:37.332Z,6.00
2023-05-01T05:50:04.454Z,6.27
2023-05-01T05:52:31.157Z,5.80
2023-05-01T05:54:57.875Z,5.83
2023-05-01T05:57:24.805Z,6.10
2023-05-01T05:59:51.615Z,5.63
2023-05-01T06:02:18.987Z,5.70
2023-05-01T06:04:46.132Z,6.27
2023-05-01T06:07:12.915Z,5.77
2023-05-01T06:09:40.422Z,6.10
2023-05-01T06:12:07.314Z,6.00
2023-05-01T06:14:34.053Z,5.80
2023-05-01T06:17:01.666Z,5.00
2023-05-01T06:19:28.488Z,6.23
2023-05-01T06:21:55.319Z,5.60
2023-05-01T06:24:22.100Z,5.30
2023-05-01T06:26:48.809Z,5.63
2023-05-01T06:29:16.468Z,6.13
2023-05-01T06:31:43.282Z,5.40
2023-05-01T06:34:10.248Z,5.23
2023-05-01T06:36:37.159Z,4.90
2023-05-01T06:39:04.365Z,5.10
2023-05-01T06:41:32.584Z,5.27
2023-05-01T06:43:59.465Z,5.33
2023-05-01T06:46:26.272Z,5.20
2023-05-01T06:48:53.026Z,4.90
2023-05-01T06:51:19.867Z,4.33
2023-05-01T06:53:46.555Z,4.80
2023-05-01T06:56:13.305Z,6.37
2023-05-01T06:58:40.057Z,5.23
2023-05-01T07:01:07.143Z,4.80
2023-05-01T07:03:33.983Z,4.83
2023-05-01T07:06:00.807Z,4.97
2023-05-01T07:08:28.199Z,5.00
2023-05-01T07:10:55.083Z,5.87
2023-05-01T07:13:21.914Z,4.57
2023-05-01T07:15:49.289Z,5.30
2023-05-01T07:18:17.561Z,4.87
2023-05-01T07:20:45.167Z,4.80
2023-05-01T07:23:11.971Z,5.10
2023-05-01T07:25:41.934Z,4.83
2023-05-01T07:28:08.820Z,4.50
2023-05-01T07:30:38.655Z,4.70
2023-05-01T07:33:08.233Z,4.37
2023-05-01T07:35:35.008Z,4.50
2023-05-01T07:38:01.770Z,4.67
2023-05-01T07:40:28.469Z,4.57
2023-05-01T07:42:55.189Z,5.50
2023-05-01T07:45:21.934Z,4.80
2023-05-01T07:47:49.594Z,5.30
2023-05-01T07:50:17.131Z,4.50
2023-05-01T07:52:44.035Z,4.53
2023-05-01T07:55:11.109Z,4.57
2023-05-01T07:57:38.649Z,4.80
2023-05-01T08:00:06.101Z,4.77
2023-05-01T08:02:32.936Z,4.60
2023-05-01T08:04:59.861Z,4.37
2023-05-01T08:07:26.776Z,4.80
2023-05-01T08:09:53.775Z,4.30
2023-05-01T08:12:20.578Z,4.00
2023-05-01T08:14:47.272Z,3.40
2023-05-01T08:17:14.267Z,3.30
2023-05-01T08:19:40.963Z,2.93
2023-05-01T08:22:07.716Z,3.47
2023-05-01T08:24:34.462Z,3.43
2023-05-01T08:27:01.266Z,3.73
2023-05-01T08:29:27.997Z,4.10
2023-05-01T08:31:56.928Z,3.73
2023-05-01T08:34:24.146Z,3.00
2023-05-01T08:36:51.163Z,3.57
2023-05-01T08:39:17.847Z,4.30
2023-05-01T08:41:48.734Z,3.93
2023-05-01T08:44:19.147Z,3.30
2023-05-01T08:46:54.982Z,3.17
2023-05-01T08:49:22.783Z,3.67
2023-05-01T08:51:52.940Z,3.40
2023-05-01T08:54:20.813Z,3.20
2023-05-01T08:56:47.813Z,3.70
2023-05-01T08:59:15.156Z,3.60
2023-05-01T09:01:43.767Z,3.70
2023-05-01T09:04:11.902Z,3.43
2023-05-01T09:06:38.942Z,2.80
2023-05-01T09:09:06.420Z,3.50
2023-05-01T09:11:33.430Z,3.60
2023-05-01T09:14:01.723Z,4.03
2023-05-01T09:16:29.798Z,3.43
2023-05-01T09:18:58.823Z,4.00
2023-05-01T09:21:27.479Z,4.07
2023-05-01T09:23:54.208Z,3.80
2023-05-01T09:26:21.939Z,3.80
2023-05-01T09:28:48.936Z,4.00
2023-05-01T09:31:20.981Z,3.70
2023-05-01T09:33:54.814Z,4.00
2023-05-01T09:36:22.873Z,3.70
2023-05-01T09:38:49.728Z,3.77
2023-05-01T09:41:17.202Z,3.60
2023-05-01T09:43:56.160Z,3.80
2023-05-01T09:46:24.541Z,4.00
2023-05-01T09:48:58.659Z,3.50
2023-05-01T09:51:30.804Z,3.87
2023-05-01T09:53:58.597Z,4.07
2023-05-01T09:56:30.464Z,3.43
2023-05-01T09:59:13.963Z,4.10
2023-05-01T10:01:43.509Z,3.50
2023-05-01T10:04:10.556Z,3.90
2023-05-01T10:06:38.358Z,3.70
2023-05-01T10:09:07.809Z,4.00
2023-05-01T10:11:55.495Z,4.03
2023-05-01T10:14:24.027Z,4.13
2023-05-01T10:16:52.912Z,4.57
2023-05-01T10:19:20.991Z,4.70
2023-05-01T10:21:47.756Z,4.33
2023-05-01T10:24:16.845Z,4.30
2023-05-01T10:26:44.128Z,3.50
2023-05-01T10:29:12.097Z,3.50
2023-05-01T10:31:40.660Z,4.50
2023-05-01T10:34:09.244Z,4.57
2023-05-01T10:36:45.999Z,3.70
2023-05-01T10:39:31.346Z,4.80
2023-05-01T10:41:58.043Z,4.70
2023-05-01T10:44:26.902Z,3.90
2023-05-01T10:46:54.595Z,3.90
2023-05-01T10:49:21.615Z,4.07
2023-05-01T10:52:03.987Z,4.20
2023-05-01T10:54:32.413Z,3.30
2023-05-01T10:57:03.176Z,4.30
2023-05-01T11:00:04.231Z,4.40
2023-05-01T11:02:31.145Z,4.73
2023-05-01T11:04:58.072Z,4.90
2023-05-01T11:07:26.053Z,4.10
2023-05-01T11:09:55.316Z,3.60
2023-05-01T11:12:41.399Z,4.10
2023-05-01T11:15:08.750Z,3.93
2023-05-01T11:17:42.211Z,4.40
2023-05-01T11:20:14.091Z,4.10
2023-05-01T11:22:47.224Z,4.47
2023-05-01T11:25:22.368Z,3.90
2023-05-01T11:27:50.726Z,4.37
2023-05-01T11:30:18.107Z,4.60
2023-05-01T11:32:46.942Z,5.07
2023-05-01T11:35:19.794Z,4.40
2023-05-01T11:37:47.550Z,4.60
2023-05-01T11:40:22.538Z,4.53
2023-05-01T11:42:50.455Z,4.47
2023-05-01T11:45:18.587Z,4.70
2023-05-01T11:47:45.464Z,4.27
2023-05-01T11:50:12.719Z,4.27
2023-05-01T11:52:43.963Z,4.37
2023-05-01T11:55:11.638Z,4.53
2023-05-01T11:58:05.152Z,4.17
2023-05-01T12:00:38.031Z,4.43
2023-05-01T12:03:13.368Z,5.13
2023-05-01T12:05:45.111Z,4.20
2023-05-01T12:08:23.229Z,4.57
2023-05-01T12:10:59.215Z,4.70
2023-05-01T12:13:29.190Z,4.90
2023-05-01T12:15:56.833Z,5.03
2023-05-01T12:18:23.937Z,4.80
2023-05-01T12:20:52.975Z,5.30
2023-05-01T12:23:30.225Z,5.77
2023-05-01T12:25:57.442Z,6.00
2023-05-01T12:28:24.838Z,5.00
2023-05-01T12:30:51.672Z,5.77
2023-05-01T12:33:20.155Z,4.90
2023-05-01T12:35:48.993Z,5.33
2023-05-01T12:38:17.882Z,5.27
2023-05-01T12:40:59.456Z,4.87
2023-05-01T12:43:38.010Z,5.70
2023-05-01T12:46:06.024Z,5.13
2023-05-01T12:48:35.933Z,5.00
2023-05-01T12:51:02.739Z,5.00
2023-05-01T12:53:30.335Z,4.87
2023-05-01T12:55:58.649Z,5.57
2023-05-01T12:58:38.591Z,4.43
2023-05-01T13:01:06.279Z,4.57
2023-05-01T13:03:37.163Z,4.73
2023-05-01T13:06:07.397Z,4.40
2023-05-01T13:08:40.013Z,4.90
2023-05-01T13:11:11.072Z,4.73
2023-05-01T13:13:37.978Z,5.13
2023-05-01T13:16:10.336Z,5.10
2023-05-01T13:18:52.014Z,5.70
2023-05-01T13:21:25.459Z,5.80
2023-05-01T13:23:59.949Z,6.40
2023-05-01T13:26:33.557Z,6.07
2023-05-01T13:29:01.702Z,6.60
2023-05-01T13:31:29.117Z,6.20
2023-05-01T13:33:58.268Z,5.90
2023-05-01T13:36:27.347Z,6.23
2023-05-01T13:38:56.656Z,6.53
2023-05-01T13:41:26.079Z,6.50
2023-05-01T13:43:53.996Z,6.00
2023-05-01T13:46:22.846Z,5.80
2023-05-01T13:48:50.108Z,5.77
2023-05-01T13:51:25.352Z,5.20
2023-05-01T13:53:53.647Z,6.70
2023-05-01T13:56:21.670Z,5.93
2023-05-01T13:58:50.060Z,6.67
2023-05-01T14:01:19.220Z,5.63
2023-05-01T14:03:46.418Z,6.40
2023-05-01T14:06:18.455Z,6.40
2023-05-01T14:08:46.969Z,5.77
2023-05-01T14:11:14.337Z,6.37
2023-05-01T14:13:42.860Z,6.93
2023-05-01T14:16:11.692Z,6.50
2023-05-01T14:18:46.078Z,6.27
2023-05-01T14:21:15.196Z,6.20
2023-05-01T14:23:42.177Z,6.00
2023-05-01T14:26:11.180Z,6.70
2023-05-01T14:28:45.267Z,6.43
2023-05-01T14:31:22.597Z,5.70
2023-05-01T14:33:55.321Z,5.87
2023-05-01T14:36:22.491Z,6.20
2023-05-01T14:38:50.568Z,5.67
2023-05-01T14:41:21.011Z,5.77
2023-05-01T14:43:51.102Z,5.10
2023-05-01T14:46:32.585Z,6.10
2023-05-01T14:49:01.027Z,5.40
2023-05-01T14:51:28.878Z,5.63
2023-05-01T14:53:55.972Z,5.93
2023-05-01T14:56:23.094Z,6.13
2023-05-01T14:58:50.266Z,5.67
2023-05-01T15:01:18.231Z,5.30
2023-05-01T15:03:45.770Z,5.47
2023-05-01T15:06:12.841Z,5.80
2023-05-01T15:08:39.687Z,5.37
2023-05-01T15:11:06.569Z,5.57
2023-05-01T15:13:33.358Z,5.13
2023-05-01T15:16:00.517Z,5.80
2023-05-01T15:18:27.356Z,5.10
2023-05-01T15:20:54.165Z,5.60
2023-05-01T15:23:20.896Z,4.97
2023-05-01T15:25:50.462Z,5.37
2023-05-01T15:28:17.380Z,5.40
2023-05-01T15:30:45.943Z,6.13
2023-05-01T15:33:18.730Z,5.50
2023-05-01T15:35:47.273Z,6.20
2023-05-01T15:38:14.374Z,6.43
2023-05-01T15:40:43.489Z,5.67
2023-05-01T15:43:10.249Z,5.13
2023-05-01T15:45:42.563Z,5.93
2023-05-01T15:48:09.837Z,5.50
2023-05-01T15:50:36.702Z,5.93
2023-05-01T15:53:03.638Z,6.20
2023-05-01T15:55:30.683Z,6.00
2023-05-01T15:57:57.427Z,5.97
2023-05-01T16:00:24.851Z,6.17
2023-05-01T16:02:51.704Z,6.27
2023-05-01T16:05:21.381Z,6.13
2023-05-01T16:07:54.013Z,5.43
2023-05-01T16:10:21.013Z,6.30
2023-05-01T16:12:50.543Z,6.23
2023-05-01T16:15:17.388Z,5.80
2023-05-01T16:17:45.939Z,6.53
2023-05-01T16:20:14.239Z,6.27
2023-05-01T16:22:42.815Z,6.50
2023-05-01T16:25:10.626Z,6.00
2023-05-01T16:27:45.851Z,6.07
2023-05-01T16:30:16.864Z,6.13
2023-05-01T16:32:44.949Z,6.53
2023-05-01T16:35:17.371Z,6.37
2023-05-01T16:37:44.204Z,7.23
2023-05-01T16:40:16.720Z,6.20
2023-05-01T16:42:49.329Z,5.63
2023-05-01T16:45:16.170Z,5.87
2023-05-01T16:47:42.968Z,5.40
2023-05-01T16:50:10.184Z,6.10
2023-05-01T16:52:37.036Z,6.03
2023-05-01T16:55:03.924Z,5.20
2023-05-01T16:57:30.693Z,5.60
2023-05-01T16:59:57.553Z,6.20
2023-05-01T17:02:24.600Z,6.23
2023-05-01T17:04:51.771Z,6.33
2023-05-01T17:07:18.782Z,6.07
2023-05-01T17:09:45.531Z,6.10
2023-05-01T17:12:12.257Z,5.70
2023-05-01T17:14:39.003Z,5.97
2023-05-01T17:17:09.464Z,5.03
2023-05-01T17:19:38.898Z,5.93
2023-05-01T17:22:07.046Z,6.13
2023-05-01T17:24:35.230Z,5.80
2023-05-01T17:27:03.191Z,5.83
2023-05-01T17:29:30.188Z,6.50
2023-05-01T17:31:57.063Z,6.17
2023-05-01T17:34:23.870Z,6.33
2023-05-01T17:36:50.769Z,5.47
2023-05-01T17:39:17.567Z,6.80
2023-05-01T17:41:44.419Z,6.73
2023-05-01T17:44:11.307Z,6.57
2023-05-01T17:46:39.015Z,6.20
2023-05-01T17:49:06.191Z,7.77
2023-05-01T17:51:33.477Z,6.33
2023-05-01T17:54:01.596Z,6.37
2023-05-01T17:56:28.435Z,6.00
2023-05-01T17:58:55.287Z,6.00
2023-05-01T18:01:22.348Z,6.10
2023-05-01T18:03:49.344Z,6.30
2023-05-01T18:06:16.834Z,6.77
2023-05-01T18:08:43.641Z,6.53
2023-05-01T18:11:10.422Z,6.80
2023-05-01T18:13:42.397Z,6.50
2023-05-01T18:16:09.776Z,6.97
2023-05-01T18:18:36.530Z,7.33
2023-05-01T18:21:03.681Z,7.93
2023-05-01T18:23:30.410Z,6.60
2023-05-01T18:25:57.196Z,7.20
2023-05-01T18:28:24.078Z,8.10
2023-05-01T18:30:50.840Z,7.77
2023-05-01T18:33:18.087Z,7.00
2023-05-01T18:35:45.025Z,7.80
2023-05-01T18:38:12.215Z,5.83
2023-05-01T18:40:39.389Z,8.60
2023-05-01T18:43:06.183Z,7.43
2023-05-01T18:45:32.987Z,7.90
2023-05-01T18:48:00.580Z,8.20
2023-05-01T18:50:27.625Z,7.40
2023-05-01T18:52:54.326Z,6.93
2023-05-01T18:55:21.073Z,7.10
2023-05-01T18:57:48.493Z,9.00
2023-05-01T19:00:17.498Z,8.50
2023-05-01T19:02:51.448Z,7.87
2023-05-01T19:05:19.126Z,8.20
2023-05-01T19:07:46.455Z,7.80
2023-05-01T19:10:13.353Z,7.57
2023-05-01T19:12:41.190Z,8.80
2023-05-01T19:15:10.119Z,8.10
2023-05-01T19:17:37.319Z,7.10
2023-05-01T19:20:04.876Z,8.07
2023-05-01T19:22:31.636Z,8.00
2023-05-01T19:25:00.015Z,9.00
2023-05-01T19:27:27.021Z,9.03
2023-05-01T19:29:54.510Z,8.80
2023-05-01T19:32:21.537Z,8.53
2023-05-01T19:34:48.575Z,11.50
2023-05-01T19:37:15.402Z,9.60
2023-05-01T19:39:42.129Z,9.73
2023-05-01T19:42:08.992Z,9.70
2023-05-01T19:44:35.718Z,11.73
2023-05-01T19:47:02.572Z,9.13
2023-05-01T19:49:29.345Z,9.20
2023-05-01T19:51:57.609Z,15.13
2023-05-01T19:54:28.648Z,14.67
2023-05-01T19:56:56.142Z,10.97
2023-05-01T19:59:23.323Z,12.93
2023-05-01T20:01:50.302Z,12.37
2023-05-01T20:04:17.385Z,12.67
2023-05-01T20:06:44.240Z,12.27
2023-05-01T20:09:11.101Z,11.90
2023-05-01T20:11:37.861Z,11.30
2023-05-01T20:14:04.620Z,12.23
2023-05-01T20:16:31.587Z,11.53
2023-05-01T20:18:58.394Z,11.57
2023-05-01T20:21:25.671Z,11.87
2023-05-01T20:23:54.282Z,10.97
2023-05-01T20:26:21.395Z,10.43
2023-05-01T20:28:48.876Z,10.93
2023-05-01T20:31:15.812Z,11.73
2023-05-01T20:33:42.634Z,11.60
2023-05-01T20:36:09.630Z,13.03
2023-05-01T20:38:47.487Z,11.77
2023-05-01T20:41:15.006Z,12.00
2023-05-01T20:43:41.800Z,12.70
2023-05-01T20:46:08.775Z,11.67
2023-05-01T20:48:35.599Z,11.80
2023-05-01T20:51:02.465Z,12.00
2023-05-01T20:53:29.246Z,12.23
2023-05-01T20:55:56.029Z,11.03
2023-05-01T20:58:22.867Z,12.23
2023-05-01T21:00:49.680Z,12.93
2023-05-01T21:03:17.066Z,12.63
2023-05-01T21:08:18.251Z,14.00
2023-05-01T21:10:45.037Z,12.43
2023-05-01T21:13:13.868Z,13.43
2023-05-01T21:15:41.432Z,14.33
2023-05-01T21:18:12.173Z,12.90
2023-05-01T21:20:39.534Z,14.37
2023-05-01T21:23:06.531Z,13.57
2023-05-01T21:25:33.292Z,14.33
2023-05-01T21:28:05.099Z,13.23
2023-05-01T21:30:34.259Z,13.73
2023-05-01T21:33:03.200Z,13.70
2023-05-01T21:35:30.483Z,13.43
2023-05-01T21:37:58.544Z,12.67
2023-05-01T21:40:25.948Z,13.23
2023-05-01T21:42:56.327Z,12.40
2023-05-01T21:45:23.561Z,13.17
2023-05-01T21:47:51.500Z,11.40
2023-05-01T21:50:19.754Z,12.83
2023-05-01T21:52:48.869Z,11.90
2023-05-01T21:55:18.811Z,12.73
2023-05-01T21:57:45.780Z,13.30
2023-05-01T22:00:13.221Z,12.60
2023-05-01T22:02:44.972Z,13.20
2023-05-01T22:05:14.253Z,12.57
2023-05-01T22:07:42.869Z,13.17
2023-05-01T22:10:11.773Z,12.87
2023-05-01T22:12:39.767Z,13.40
2023-05-01T22:15:13.902Z,12.60
2023-05-01T22:17:40.830Z,12.53
2023-05-01T22:20:11.281Z,12.80
2023-05-01T22:22:39.325Z,12.90
2023-05-01T22:25:06.989Z,12.80
2023-05-01T22:27:34.612Z,12.70
2023-05-01T22:30:02.047Z,12.57
2023-05-01T22:32:29.237Z,12.00
2023-05-01T22:34:55.998Z,13.00
2023-05-01T22:37:22.944Z,13.30
2023-05-01T22:39:49.775Z,11.37
2023-05-01T22:42:16.513Z,11.30
2023-05-01T22:44:43.336Z,12.40
2023-05-01T22:47:10.279Z,11.60
2023-05-01T22:49:37.010Z,9.63
2023-05-01T22:52:03.981Z,9.90
2023-05-01T22:54:30.724Z,10.70
2023-05-01T22:56:57.443Z,9.20
2023-05-01T22:59:24.236Z,10.30
2023-05-01T23:01:51.044Z,9.03
2023-05-01T23:04:18.106Z,8.67
2023-05-01T23:06:45.023Z,8.93
2023-05-01T23:09:12.075Z,8.83
2023-05-01T23:11:40.744Z,8.40
2023-05-01T23:14:07.645Z,8.97
2023-05-01T23:16:43.769Z,8.13
2023-05-01T23:19:21.907Z,8.07
2023-05-01T23:22:03.956Z,7.97
2023-05-01T23:24:48.236Z,7.50
2023-05-01T23:27:16.866Z,8.87
2023-05-01T23:29:54.616Z,8.23
2023-05-01T23:32:30.002Z,7.07
2023-05-01T23:35:07.272Z,7.77
2023-05-01T23:37:33.984Z,6.80
2023-05-01T23:40:01.946Z,7.17
2023-05-01T23:42:28.924Z,7.33
2023-05-01T23:44:56.550Z,7.07
2023-05-01T23:47:23.373Z,7.03
2023-05-01T23:49:50.509Z,6.77
2023-05-01T23:52:17.379Z,6.70
2023-05-01T23:54:44.105Z,5.90
2023-05-01T23:57:10.820Z,7.23
2023-05-01T23:59:37.963Z,6.23
